sensor_id;sensor_type;location;lat;lon;timestamp;P1;durP1;ratioP1;P2;durP2;ratioP2
56770;SDS011;42641;59.794;17.616;2024-03-25T00:00:15;2.03;;;1.73;;
56770;SDS011;42641;59.794;17.616;2024-03-25T00:02:41;4.90;;;1.70;;
56770;SDS011;42641;59.794;17.616;2024-03-25T00:05:08;2.00;;;1.73;;
56770;SDS011;42641;59.794;17.616;2024-03-25T00:07:38;2.50;;;1.50;;
56770;SDS011;42641;59.794;17.616;2024-03-25T00:10:04;2.00;;;1.70;;
56770;SDS011;42641;59.794;17.616;2024-03-25T00:12:35;3.30;;;1.70;;
56770;SDS011;42641;59.794;17.616;2024-03-25T00:15:01;1.80;;;1.70;;
56770;SDS011;42641;59.794;17.616;2024-03-25T00:17:29;4.23;;;2.00;;
56770;SDS011;42641;59.794;17.616;2024-03-25T00:19:55;2.67;;;1.60;;
56770;SDS011;42641;59.794;17.616;2024-03-25T00:22:22;2.47;;;1.60;;
56770;SDS011;42641;59.794;17.616;2024-03-25T00:24:51;1.87;;;1.70;;
56770;SDS011;42641;59.794;17.616;2024-03-25T00:27:17;2.37;;;1.80;;
56770;SDS011;42641;59.794;17.616;2024-03-25T00:29:44;1.73;;;1.50;;
56770;SDS011;42641;59.794;17.616;2024-03-25T00:32:10;1.63;;;1.53;;
56770;SDS011;42641;59.794;17.616;2024-03-25T00:34:37;3.23;;;2.00;;
56770;SDS011;42641;59.794;17.616;2024-03-25T00:37:03;1.60;;;1.50;;
56770;SDS011;42641;59.794;17.616;2024-03-25T00:39:30;2.10;;;1.70;;
56770;SDS011;42641;59.794;17.616;2024-03-25T00:42:00;2.27;;;2.03;;
56770;SDS011;42641;59.794;17.616;2024-03-25T00:44:27;3.13;;;1.50;;
56770;SDS011;42641;59.794;17.616;2024-03-25T00:46:53;1.80;;;1.40;;
56770;SDS011;42641;59.794;17.616;2024-03-25T00:49:19;1.93;;;1.80;;
56770;SDS011;42641;59.794;17.616;2024-03-25T00:51:47;2.03;;;1.70;;
56770;SDS011;42641;59.794;17.616;2024-03-25T00:54:13;1.60;;;1.50;;
56770;SDS011;42641;59.794;17.616;2024-03-25T00:56:39;1.77;;;1.50;;
56770;SDS011;42641;59.794;17.616;2024-03-25T00:59:06;2.73;;;1.80;;
56770;SDS011;42641;59.794;17.616;2024-03-25T01:01:33;3.50;;;1.87;;
56770;SDS011;42641;59.794;17.616;2024-03-25T01:04:01;1.87;;;1.63;;
56770;SDS011;42641;59.794;17.616;2024-03-25T01:06:28;1.97;;;1.70;;
56770;SDS011;42641;59.794;17.616;2024-03-25T01:08:55;1.70;;;1.57;;
56770;SDS011;42641;59.794;17.616;2024-03-25T01:11:21;1.70;;;1.47;;
56770;SDS011;42641;59.794;17.616;2024-03-25T01:13:48;2.93;;;1.87;;
56770;SDS011;42641;59.794;17.616;2024-03-25T01:16:14;2.80;;;1.60;;
56770;SDS011;42641;59.794;17.616;2024-03-25T01:18:41;2.97;;;1.83;;
56770;SDS011;42641;59.794;17.616;2024-03-25T01:21:07;1.90;;;1.70;;
56770;SDS011;42641;59.794;17.616;2024-03-25T01:23:33;1.70;;;1.60;;
56770;SDS011;42641;59.794;17.616;2024-03-25T01:26:00;3.77;;;1.50;;
56770;SDS011;42641;59.794;17.616;2024-03-25T01:28:26;2.10;;;1.70;;
56770;SDS011;42641;59.794;17.616;2024-03-25T01:30:53;2.33;;;1.70;;
56770;SDS011;42641;59.794;17.616;2024-03-25T01:33:19;2.23;;;1.90;;
56770;SDS011;42641;59.794;17.616;2024-03-25T01:35:46;1.90;;;1.43;;
56770;SDS011;42641;59.794;17.616;2024-03-25T01:38:12;1.63;;;1.53;;
56770;SDS011;42641;59.794;17.616;2024-03-25T01:40:38;1.73;;;1.63;;
56770;SDS011;42641;59.794;17.616;2024-03-25T01:43:05;2.30;;;1.73;;
56770;SDS011;42641;59.794;17.616;2024-03-25T01:45:32;2.87;;;1.67;;
56770;SDS011;42641;59.794;17.616;2024-03-25T01:48:01;2.43;;;1.70;;
56770;SDS011;42641;59.794;17.616;2024-03-25T01:50:30;2.17;;;1.70;;
56770;SDS011;42641;59.794;17.616;2024-03-25T01:53:02;2.13;;;1.70;;
56770;SDS011;42641;59.794;17.616;2024-03-25T01:55:29;2.17;;;1.40;;
56770;SDS011;42641;59.794;17.616;2024-03-25T01:57:58;1.60;;;1.50;;
56770;SDS011;42641;59.794;17.616;2024-03-25T02:00:24;1.77;;;1.50;;
56770;SDS011;42641;59.794;17.616;2024-03-25T02:02:53;1.47;;;1.30;;
56770;SDS011;42641;59.794;17.616;2024-03-25T02:05:21;1.97;;;1.53;;
56770;SDS011;42641;59.794;17.616;2024-03-25T02:07:47;2.47;;;1.80;;
56770;SDS011;42641;59.794;17.616;2024-03-25T02:10:15;1.50;;;1.40;;
56770;SDS011;42641;59.794;17.616;2024-03-25T02:12:42;1.77;;;1.67;;
56770;SDS011;42641;59.794;17.616;2024-03-25T02:15:09;3.47;;;1.70;;
56770;SDS011;42641;59.794;17.616;2024-03-25T02:17:36;1.70;;;1.60;;
56770;SDS011;42641;59.794;17.616;2024-03-25T02:20:03;2.57;;;1.70;;
56770;SDS011;42641;59.794;17.616;2024-03-25T02:22:37;2.40;;;1.73;;
56770;SDS011;42641;59.794;17.616;2024-03-25T02:25:05;2.80;;;1.80;;
56770;SDS011;42641;59.794;17.616;2024-03-25T02:27:34;1.70;;;1.60;;
56770;SDS011;42641;59.794;17.616;2024-03-25T02:30:11;1.50;;;1.40;;
56770;SDS011;42641;59.794;17.616;2024-03-25T02:32:39;1.90;;;1.60;;
56770;SDS011;42641;59.794;17.616;2024-03-25T02:35:06;1.90;;;1.70;;
56770;SDS011;42641;59.794;17.616;2024-03-25T02:37:39;1.70;;;1.60;;
56770;SDS011;42641;59.794;17.616;2024-03-25T02:40:07;2.80;;;1.73;;
56770;SDS011;42641;59.794;17.616;2024-03-25T02:42:35;4.83;;;1.70;;
56770;SDS011;42641;59.794;17.616;2024-03-25T02:45:03;1.60;;;1.50;;
56770;SDS011;42641;59.794;17.616;2024-03-25T02:47:30;1.60;;;1.50;;
56770;SDS011;42641;59.794;17.616;2024-03-25T02:49:57;1.83;;;1.73;;
56770;SDS011;42641;59.794;17.616;2024-03-25T02:52:23;2.73;;;1.83;;
56770;SDS011;42641;59.794;17.616;2024-03-25T02:54:50;3.13;;;1.80;;
56770;SDS011;42641;59.794;17.616;2024-03-25T02:57:17;2.00;;;1.67;;
56770;SDS011;42641;59.794;17.616;2024-03-25T02:59:43;1.90;;;1.70;;
56770;SDS011;42641;59.794;17.616;2024-03-25T03:02:09;2.30;;;1.97;;
56770;SDS011;42641;59.794;17.616;2024-03-25T03:04:36;2.77;;;1.70;;
56770;SDS011;42641;59.794;17.616;2024-03-25T03:07:02;1.70;;;1.60;;
56770;SDS011;42641;59.794;17.616;2024-03-25T03:09:28;1.57;;;1.47;;
56770;SDS011;42641;59.794;17.616;2024-03-25T03:11:55;3.27;;;1.63;;
56770;SDS011;42641;59.794;17.616;2024-03-25T03:14:21;2.47;;;1.70;;
56770;SDS011;42641;59.794;17.616;2024-03-25T03:16:48;2.97;;;1.70;;
56770;SDS011;42641;59.794;17.616;2024-03-25T03:19:15;2.33;;;1.77;;
56770;SDS011;42641;59.794;17.616;2024-03-25T03:21:41;1.90;;;1.80;;
56770;SDS011;42641;59.794;17.616;2024-03-25T03:24:07;2.23;;;2.00;;
56770;SDS011;42641;59.794;17.616;2024-03-25T03:26:34;2.83;;;1.90;;
56770;SDS011;42641;59.794;17.616;2024-03-25T03:29:00;1.97;;;1.80;;
56770;SDS011;42641;59.794;17.616;2024-03-25T03:31:27;2.73;;;1.80;;
56770;SDS011;42641;59.794;17.616;2024-03-25T03:33:53;1.80;;;1.50;;
56770;SDS011;42641;59.794;17.616;2024-03-25T03:36:21;2.10;;;1.90;;
56770;SDS011;42641;59.794;17.616;2024-03-25T03:38:51;2.27;;;1.60;;
56770;SDS011;42641;59.794;17.616;2024-03-25T03:41:18;3.03;;;1.87;;
56770;SDS011;42641;59.794;17.616;2024-03-25T03:43:44;2.00;;;1.80;;
56770;SDS011;42641;59.794;17.616;2024-03-25T03:46:11;2.27;;;2.00;;
56770;SDS011;42641;59.794;17.616;2024-03-25T03:48:37;2.37;;;1.87;;
56770;SDS011;42641;59.794;17.616;2024-03-25T03:51:05;2.50;;;1.70;;
56770;SDS011;42641;59.794;17.616;2024-03-25T03:53:35;2.43;;;1.80;;
56770;SDS011;42641;59.794;17.616;2024-03-25T03:56:02;2.47;;;1.90;;
56770;SDS011;42641;59.794;17.616;2024-03-25T03:58:32;1.83;;;1.73;;
56770;SDS011;42641;59.794;17.616;2024-03-25T04:00:59;2.37;;;1.70;;
56770;SDS011;42641;59.794;17.616;2024-03-25T04:03:26;2.13;;;1.90;;
56770;SDS011;42641;59.794;17.616;2024-03-25T04:05:52;2.33;;;1.83;;
56770;SDS011;42641;59.794;17.616;2024-03-25T04:08:19;1.83;;;1.73;;
56770;SDS011;42641;59.794;17.616;2024-03-25T04:10:45;2.63;;;1.90;;
56770;SDS011;42641;59.794;17.616;2024-03-25T04:13:12;2.20;;;1.87;;
56770;SDS011;42641;59.794;17.616;2024-03-25T04:15:42;2.20;;;2.00;;
56770;SDS011;42641;59.794;17.616;2024-03-25T04:18:09;2.00;;;1.80;;
56770;SDS011;42641;59.794;17.616;2024-03-25T04:20:40;2.43;;;1.77;;
56770;SDS011;42641;59.794;17.616;2024-03-25T04:23:07;1.83;;;1.70;;
56770;SDS011;42641;59.794;17.616;2024-03-25T04:25:34;3.20;;;1.87;;
56770;SDS011;42641;59.794;17.616;2024-03-25T04:28:03;2.93;;;1.70;;
56770;SDS011;42641;59.794;17.616;2024-03-25T04:30:31;2.60;;;2.13;;
56770;SDS011;42641;59.794;17.616;2024-03-25T04:32:59;3.77;;;2.13;;
56770;SDS011;42641;59.794;17.616;2024-03-25T04:35:26;2.43;;;2.17;;
56770;SDS011;42641;59.794;17.616;2024-03-25T04:37:53;3.43;;;2.10;;
56770;SDS011;42641;59.794;17.616;2024-03-25T04:40:22;1.60;;;1.50;;
56770;SDS011;42641;59.794;17.616;2024-03-25T04:42:49;3.07;;;1.90;;
56770;SDS011;42641;59.794;17.616;2024-03-25T04:45:15;3.13;;;1.80;;
56770;SDS011;42641;59.794;17.616;2024-03-25T04:47:42;2.57;;;1.70;;
56770;SDS011;42641;59.794;17.616;2024-03-25T04:50:09;3.60;;;2.23;;
56770;SDS011;42641;59.794;17.616;2024-03-25T04:52:35;4.87;;;1.90;;
56770;SDS011;42641;59.794;17.616;2024-03-25T04:55:02;2.40;;;2.07;;
56770;SDS011;42641;59.794;17.616;2024-03-25T04:57:29;2.83;;;2.20;;
56770;SDS011;42641;59.794;17.616;2024-03-25T04:59:55;4.23;;;1.73;;
56770;SDS011;42641;59.794;17.616;2024-03-25T05:02:23;2.67;;;2.07;;
56770;SDS011;42641;59.794;17.616;2024-03-25T05:04:49;2.40;;;2.00;;
56770;SDS011;42641;59.794;17.616;2024-03-25T05:07:15;2.10;;;1.90;;
56770;SDS011;42641;59.794;17.616;2024-03-25T05:09:42;2.13;;;1.80;;
56770;SDS011;42641;59.794;17.616;2024-03-25T05:12:09;2.37;;;1.80;;
56770;SDS011;42641;59.794;17.616;2024-03-25T05:14:35;1.63;;;1.53;;
56770;SDS011;42641;59.794;17.616;2024-03-25T05:17:02;2.60;;;2.07;;
56770;SDS011;42641;59.794;17.616;2024-03-25T05:19:30;6.73;;;2.40;;
56770;SDS011;42641;59.794;17.616;2024-03-25T05:21:56;2.60;;;2.20;;
56770;SDS011;42641;59.794;17.616;2024-03-25T05:24:23;3.87;;;2.10;;
56770;SDS011;42641;59.794;17.616;2024-03-25T05:26:49;2.47;;;2.27;;
56770;SDS011;42641;59.794;17.616;2024-03-25T05:29:15;2.57;;;1.97;;
56770;SDS011;42641;59.794;17.616;2024-03-25T05:31:55;1.90;;;1.80;;
56770;SDS011;42641;59.794;17.616;2024-03-25T05:34:26;2.93;;;1.93;;
56770;SDS011;42641;59.794;17.616;2024-03-25T05:36:53;3.03;;;2.00;;
56770;SDS011;42641;59.794;17.616;2024-03-25T05:39:20;2.13;;;1.70;;
56770;SDS011;42641;59.794;17.616;2024-03-25T05:41:46;1.97;;;1.80;;
56770;SDS011;42641;59.794;17.616;2024-03-25T05:44:13;5.20;;;2.50;;
56770;SDS011;42641;59.794;17.616;2024-03-25T05:46:40;2.63;;;1.97;;
56770;SDS011;42641;59.794;17.616;2024-03-25T05:49:06;3.40;;;1.97;;
56770;SDS011;42641;59.794;17.616;2024-03-25T05:51:33;2.10;;;1.90;;
56770;SDS011;42641;59.794;17.616;2024-03-25T05:53:59;2.10;;;1.90;;
56770;SDS011;42641;59.794;17.616;2024-03-25T05:56:26;2.67;;;2.03;;
56770;SDS011;42641;59.794;17.616;2024-03-25T05:58:59;3.80;;;2.17;;
56770;SDS011;42641;59.794;17.616;2024-03-25T06:01:26;3.07;;;2.33;;
56770;SDS011;42641;59.794;17.616;2024-03-25T06:03:53;3.83;;;2.23;;
56770;SDS011;42641;59.794;17.616;2024-03-25T06:06:19;2.90;;;2.40;;
56770;SDS011;42641;59.794;17.616;2024-03-25T06:08:46;3.87;;;2.37;;
56770;SDS011;42641;59.794;17.616;2024-03-25T06:11:12;2.30;;;2.07;;
56770;SDS011;42641;59.794;17.616;2024-03-25T06:13:39;4.87;;;2.47;;
56770;SDS011;42641;59.794;17.616;2024-03-25T06:16:05;4.07;;;2.53;;
56770;SDS011;42641;59.794;17.616;2024-03-25T06:18:31;5.80;;;2.43;;
56770;SDS011;42641;59.794;17.616;2024-03-25T06:20:58;3.30;;;2.30;;
56770;SDS011;42641;59.794;17.616;2024-03-25T06:23:25;2.63;;;2.23;;
56770;SDS011;42641;59.794;17.616;2024-03-25T06:25:53;3.07;;;2.10;;
56770;SDS011;42641;59.794;17.616;2024-03-25T06:28:20;3.23;;;2.10;;
56770;SDS011;42641;59.794;17.616;2024-03-25T06:30:47;3.33;;;2.20;;
56770;SDS011;42641;59.794;17.616;2024-03-25T06:33:32;2.43;;;2.23;;
56770;SDS011;42641;59.794;17.616;2024-03-25T06:36:18;2.80;;;2.43;;
56770;SDS011;42641;59.794;17.616;2024-03-25T06:38:45;3.63;;;2.27;;
56770;SDS011;42641;59.794;17.616;2024-03-25T06:41:11;2.70;;;2.23;;
56770;SDS011;42641;59.794;17.616;2024-03-25T06:43:38;4.47;;;2.60;;
56770;SDS011;42641;59.794;17.616;2024-03-25T06:46:05;3.93;;;2.20;;
56770;SDS011;42641;59.794;17.616;2024-03-25T06:48:34;2.50;;;2.30;;
56770;SDS011;42641;59.794;17.616;2024-03-25T06:51:04;3.23;;;2.43;;
56770;SDS011;42641;59.794;17.616;2024-03-25T06:53:31;3.60;;;2.30;;
56770;SDS011;42641;59.794;17.616;2024-03-25T06:55:57;3.07;;;2.20;;
56770;SDS011;42641;59.794;17.616;2024-03-25T06:58:25;3.27;;;2.30;;
56770;SDS011;42641;59.794;17.616;2024-03-25T07:00:52;3.63;;;2.40;;
56770;SDS011;42641;59.794;17.616;2024-03-25T07:03:20;2.77;;;2.40;;
56770;SDS011;42641;59.794;17.616;2024-03-25T07:05:47;3.10;;;2.30;;
56770;SDS011;42641;59.794;17.616;2024-03-25T07:08:15;2.33;;;2.10;;
56770;SDS011;42641;59.794;17.616;2024-03-25T07:10:42;2.47;;;2.13;;
56770;SDS011;42641;59.794;17.616;2024-03-25T07:13:08;4.67;;;2.40;;
56770;SDS011;42641;59.794;17.616;2024-03-25T07:15:35;3.87;;;2.33;;
56770;SDS011;42641;59.794;17.616;2024-03-25T07:18:02;2.13;;;1.73;;
56770;SDS011;42641;59.794;17.616;2024-03-25T07:20:30;2.93;;;2.10;;
56770;SDS011;42641;59.794;17.616;2024-03-25T07:22:57;4.30;;;2.17;;
56770;SDS011;42641;59.794;17.616;2024-03-25T07:25:24;2.20;;;2.00;;
56770;SDS011;42641;59.794;17.616;2024-03-25T07:27:51;2.57;;;1.90;;
56770;SDS011;42641;59.794;17.616;2024-03-25T07:30:21;2.40;;;2.00;;
56770;SDS011;42641;59.794;17.616;2024-03-25T07:32:57;3.50;;;2.20;;
56770;SDS011;42641;59.794;17.616;2024-03-25T07:35:25;1.90;;;1.80;;
56770;SDS011;42641;59.794;17.616;2024-03-25T07:37:51;2.17;;;1.70;;
56770;SDS011;42641;59.794;17.616;2024-03-25T07:40:21;2.50;;;1.70;;
56770;SDS011;42641;59.794;17.616;2024-03-25T07:42:48;1.80;;;1.60;;
56770;SDS011;42641;59.794;17.616;2024-03-25T07:45:15;1.90;;;1.80;;
56770;SDS011;42641;59.794;17.616;2024-03-25T07:47:42;1.60;;;1.50;;
56770;SDS011;42641;59.794;17.616;2024-03-25T07:50:08;2.47;;;1.97;;
56770;SDS011;42641;59.794;17.616;2024-03-25T07:52:35;1.60;;;1.50;;
56770;SDS011;42641;59.794;17.616;2024-03-25T07:55:06;1.93;;;1.80;;
56770;SDS011;42641;59.794;17.616;2024-03-25T07:57:33;2.07;;;1.67;;
56770;SDS011;42641;59.794;17.616;2024-03-25T07:59:59;2.10;;;1.90;;
56770;SDS011;42641;59.794;17.616;2024-03-25T08:02:26;2.10;;;1.67;;
56770;SDS011;42641;59.794;17.616;2024-03-25T08:04:52;2.80;;;2.10;;
56770;SDS011;42641;59.794;17.616;2024-03-25T08:07:19;2.27;;;2.07;;
56770;SDS011;42641;59.794;17.616;2024-03-25T08:09:45;2.30;;;1.87;;
56770;SDS011;42641;59.794;17.616;2024-03-25T08:12:11;2.33;;;2.00;;
56770;SDS011;42641;59.794;17.616;2024-03-25T08:14:38;1.73;;;1.63;;
56770;SDS011;42641;59.794;17.616;2024-03-25T08:17:04;2.33;;;2.13;;
56770;SDS011;42641;59.794;17.616;2024-03-25T08:19:31;3.60;;;1.80;;
56770;SDS011;42641;59.794;17.616;2024-03-25T08:21:57;2.10;;;1.90;;
56770;SDS011;42641;59.794;17.616;2024-03-25T08:24:23;1.77;;;1.67;;
56770;SDS011;42641;59.794;17.616;2024-03-25T08:26:50;2.50;;;1.80;;
56770;SDS011;42641;59.794;17.616;2024-03-25T08:29:16;2.23;;;1.80;;
56770;SDS011;42641;59.794;17.616;2024-03-25T08:31:43;4.17;;;1.83;;
56770;SDS011;42641;59.794;17.616;2024-03-25T08:34:09;2.67;;;1.93;;
56770;SDS011;42641;59.794;17.616;2024-03-25T08:36:36;3.63;;;1.87;;
56770;SDS011;42641;59.794;17.616;2024-03-25T08:39:02;3.00;;;1.90;;
56770;SDS011;42641;59.794;17.616;2024-03-25T08:41:30;2.03;;;1.80;;
56770;SDS011;42641;59.794;17.616;2024-03-25T08:43:56;2.03;;;1.70;;
56770;SDS011;42641;59.794;17.616;2024-03-25T08:46:22;2.03;;;1.83;;
56770;SDS011;42641;59.794;17.616;2024-03-25T08:48:49;3.40;;;2.07;;
56770;SDS011;42641;59.794;17.616;2024-03-25T08:51:16;2.07;;;1.87;;
56770;SDS011;42641;59.794;17.616;2024-03-25T08:53:43;1.70;;;1.60;;
56770;SDS011;42641;59.794;17.616;2024-03-25T08:56:10;3.30;;;1.67;;
56770;SDS011;42641;59.794;17.616;2024-03-25T08:58:36;3.13;;;1.50;;
56770;SDS011;42641;59.794;17.616;2024-03-25T09:01:03;3.40;;;1.80;;
56770;SDS011;42641;59.794;17.616;2024-03-25T09:03:31;1.73;;;1.63;;
56770;SDS011;42641;59.794;17.616;2024-03-25T09:05:59;2.17;;;1.60;;
56770;SDS011;42641;59.794;17.616;2024-03-25T09:08:25;6.33;;;1.90;;
56770;SDS011;42641;59.794;17.616;2024-03-25T09:10:52;2.67;;;1.90;;
56770;SDS011;42641;59.794;17.616;2024-03-25T09:13:32;2.10;;;1.80;;
56770;SDS011;42641;59.794;17.616;2024-03-25T09:15:59;1.90;;;1.70;;
56770;SDS011;42641;59.794;17.616;2024-03-25T09:18:25;2.03;;;1.60;;
56770;SDS011;42641;59.794;17.616;2024-03-25T09:20:52;3.63;;;1.90;;
56770;SDS011;42641;59.794;17.616;2024-03-25T09:23:18;2.37;;;1.90;;
56770;SDS011;42641;59.794;17.616;2024-03-25T09:25:51;3.23;;;2.00;;
56770;SDS011;42641;59.794;17.616;2024-03-25T09:28:19;1.90;;;1.70;;
56770;SDS011;42641;59.794;17.616;2024-03-25T09:30:47;2.80;;;1.50;;
56770;SDS011;42641;59.794;17.616;2024-03-25T09:33:14;3.30;;;1.70;;
56770;SDS011;42641;59.794;17.616;2024-03-25T09:35:41;3.27;;;1.70;;
56770;SDS011;42641;59.794;17.616;2024-03-25T09:38:08;1.57;;;1.40;;
56770;SDS011;42641;59.794;17.616;2024-03-25T09:40:39;2.43;;;1.80;;
56770;SDS011;42641;59.794;17.616;2024-03-25T09:43:07;2.27;;;1.80;;
56770;SDS011;42641;59.794;17.616;2024-03-25T09:46:05;2.30;;;1.77;;
56770;SDS011;42641;59.794;17.616;2024-03-25T09:48:35;1.70;;;1.60;;
56770;SDS011;42641;59.794;17.616;2024-03-25T09:51:04;3.47;;;1.83;;
56770;SDS011;42641;59.794;17.616;2024-03-25T09:53:31;1.87;;;1.63;;
56770;SDS011;42641;59.794;17.616;2024-03-25T09:55:57;2.77;;;1.60;;
56770;SDS011;42641;59.794;17.616;2024-03-25T09:58:24;1.97;;;1.80;;
56770;SDS011;42641;59.794;17.616;2024-03-25T10:00:52;2.87;;;1.60;;
56770;SDS011;42641;59.794;17.616;2024-03-25T10:03:21;1.63;;;1.50;;
56770;SDS011;42641;59.794;17.616;2024-03-25T10:05:47;2.40;;;1.63;;
56770;SDS011;42641;59.794;17.616;2024-03-25T10:08:14;2.00;;;1.80;;
56770;SDS011;42641;59.794;17.616;2024-03-25T10:10:53;2.63;;;1.50;;
56770;SDS011;42641;59.794;17.616;2024-03-25T10:13:22;1.77;;;1.57;;
56770;SDS011;42641;59.794;17.616;2024-03-25T10:15:48;2.90;;;1.60;;
56770;SDS011;42641;59.794;17.616;2024-03-25T10:18:16;3.13;;;1.63;;
56770;SDS011;42641;59.794;17.616;2024-03-25T10:20:49;4.43;;;1.67;;
56770;SDS011;42641;59.794;17.616;2024-03-25T10:23:22;1.63;;;1.53;;
56770;SDS011;42641;59.794;17.616;2024-03-25T10:25:52;3.43;;;1.70;;
56770;SDS011;42641;59.794;17.616;2024-03-25T10:28:19;2.10;;;1.60;;
56770;SDS011;42641;59.794;17.616;2024-03-25T10:30:46;1.93;;;1.60;;
56770;SDS011;42641;59.794;17.616;2024-03-25T10:33:13;1.60;;;1.50;;
56770;SDS011;42641;59.794;17.616;2024-03-25T10:35:39;2.30;;;1.60;;
56770;SDS011;42641;59.794;17.616;2024-03-25T10:38:09;1.50;;;1.40;;
56770;SDS011;42641;59.794;17.616;2024-03-25T10:40:39;2.00;;;1.73;;
56770;SDS011;42641;59.794;17.616;2024-03-25T10:43:06;2.30;;;1.63;;
56770;SDS011;42641;59.794;17.616;2024-03-25T10:45:35;2.30;;;1.50;;
56770;SDS011;42641;59.794;17.616;2024-03-25T10:48:19;1.43;;;1.33;;
56770;SDS011;42641;59.794;17.616;2024-03-25T10:50:55;1.97;;;1.60;;
56770;SDS011;42641;59.794;17.616;2024-03-25T10:53:22;1.60;;;1.47;;
56770;SDS011;42641;59.794;17.616;2024-03-25T10:55:53;1.90;;;1.80;;
56770;SDS011;42641;59.794;17.616;2024-03-25T10:58:21;2.23;;;1.60;;
56770;SDS011;42641;59.794;17.616;2024-03-25T11:00:49;2.40;;;1.83;;
56770;SDS011;42641;59.794;17.616;2024-03-25T11:03:17;1.93;;;1.80;;
56770;SDS011;42641;59.794;17.616;2024-03-25T11:05:47;2.67;;;2.00;;
56770;SDS011;42641;59.794;17.616;2024-03-25T11:08:14;2.27;;;1.90;;
56770;SDS011;42641;59.794;17.616;2024-03-25T11:10:41;1.83;;;1.67;;
56770;SDS011;42641;59.794;17.616;2024-03-25T11:13:14;2.10;;;1.63;;
56770;SDS011;42641;59.794;17.616;2024-03-25T11:15:46;1.80;;;1.70;;
56770;SDS011;42641;59.794;17.616;2024-03-25T11:18:18;1.87;;;1.50;;
56770;SDS011;42641;59.794;17.616;2024-03-25T11:21:00;1.80;;;1.60;;
56770;SDS011;42641;59.794;17.616;2024-03-25T11:23:43;1.70;;;1.60;;
56770;SDS011;42641;59.794;17.616;2024-03-25T11:26:26;1.57;;;1.43;;
56770;SDS011;42641;59.794;17.616;2024-03-25T11:28:56;2.60;;;1.50;;
56770;SDS011;42641;59.794;17.616;2024-03-25T11:31:25;1.93;;;1.40;;
56770;SDS011;42641;59.794;17.616;2024-03-25T11:33:52;1.93;;;1.30;;
56770;SDS011;42641;59.794;17.616;2024-03-25T11:36:20;1.40;;;1.30;;
56770;SDS011;42641;59.794;17.616;2024-03-25T11:38:57;3.23;;;1.53;;
56770;SDS011;42641;59.794;17.616;2024-03-25T11:41:25;1.60;;;1.50;;
56770;SDS011;42641;59.794;17.616;2024-03-25T11:43:51;2.63;;;1.50;;
56770;SDS011;42641;59.794;17.616;2024-03-25T11:46:18;2.47;;;1.57;;
56770;SDS011;42641;59.794;17.616;2024-03-25T11:48:45;1.70;;;1.60;;
56770;SDS011;42641;59.794;17.616;2024-03-25T11:51:16;1.77;;;1.60;;
56770;SDS011;42641;59.794;17.616;2024-03-25T11:53:44;2.73;;;1.50;;
56770;SDS011;42641;59.794;17.616;2024-03-25T11:56:13;3.73;;;1.63;;
56770;SDS011;42641;59.794;17.616;2024-03-25T11:58:40;2.63;;;1.60;;
56770;SDS011;42641;59.794;17.616;2024-03-25T12:01:06;1.53;;;1.43;;
56770;SDS011;42641;59.794;17.616;2024-03-25T12:03:36;1.97;;;1.70;;
56770;SDS011;42641;59.794;17.616;2024-03-25T12:06:02;1.60;;;1.50;;
56770;SDS011;42641;59.794;17.616;2024-03-25T12:08:29;1.50;;;1.40;;
56770;SDS011;42641;59.794;17.616;2024-03-25T12:10:58;1.77;;;1.57;;
56770;SDS011;42641;59.794;17.616;2024-03-25T12:13:44;2.30;;;1.60;;
56770;SDS011;42641;59.794;17.616;2024-03-25T12:16:10;2.23;;;1.57;;
56770;SDS011;42641;59.794;17.616;2024-03-25T12:18:39;1.80;;;1.70;;
56770;SDS011;42641;59.794;17.616;2024-03-25T12:21:08;1.40;;;1.30;;
56770;SDS011;42641;59.794;17.616;2024-03-25T12:23:35;2.07;;;1.50;;
56770;SDS011;42641;59.794;17.616;2024-03-25T12:26:02;1.50;;;1.40;;
56770;SDS011;42641;59.794;17.616;2024-03-25T12:28:33;2.10;;;1.60;;
56770;SDS011;42641;59.794;17.616;2024-03-25T12:31:07;2.73;;;1.83;;
56770;SDS011;42641;59.794;17.616;2024-03-25T12:33:40;3.10;;;1.67;;
56770;SDS011;42641;59.794;17.616;2024-03-25T12:36:06;1.60;;;1.50;;
56770;SDS011;42641;59.794;17.616;2024-03-25T12:38:34;1.50;;;1.40;;
56770;SDS011;42641;59.794;17.616;2024-03-25T12:41:04;2.00;;;1.40;;
56770;SDS011;42641;59.794;17.616;2024-03-25T12:43:32;1.60;;;1.50;;
56770;SDS011;42641;59.794;17.616;2024-03-25T12:45:59;3.37;;;1.40;;
56770;SDS011;42641;59.794;17.616;2024-03-25T12:48:26;2.40;;;1.53;;
56770;SDS011;42641;59.794;17.616;2024-03-25T12:50:52;1.53;;;1.43;;
56770;SDS011;42641;59.794;17.616;2024-03-25T12:53:21;1.50;;;1.40;;
56770;SDS011;42641;59.794;17.616;2024-03-25T12:55:48;1.67;;;1.40;;
56770;SDS011;42641;59.794;17.616;2024-03-25T12:58:14;1.43;;;1.30;;
56770;SDS011;42641;59.794;17.616;2024-03-25T13:00:41;1.40;;;1.30;;
56770;SDS011;42641;59.794;17.616;2024-03-25T13:03:08;2.60;;;1.40;;
56770;SDS011;42641;59.794;17.616;2024-03-25T13:05:35;1.60;;;1.47;;
56770;SDS011;42641;59.794;17.616;2024-03-25T13:08:02;1.40;;;1.30;;
56770;SDS011;42641;59.794;17.616;2024-03-25T13:10:29;1.30;;;1.20;;
56770;SDS011;42641;59.794;17.616;2024-03-25T13:12:56;1.43;;;1.13;;
56770;SDS011;42641;59.794;17.616;2024-03-25T13:15:22;1.70;;;1.57;;
56770;SDS011;42641;59.794;17.616;2024-03-25T13:17:49;1.40;;;1.30;;
56770;SDS011;42641;59.794;17.616;2024-03-25T13:20:15;1.70;;;1.53;;
56770;SDS011;42641;59.794;17.616;2024-03-25T13:22:41;2.53;;;1.73;;
56770;SDS011;42641;59.794;17.616;2024-03-25T13:25:10;2.20;;;1.80;;
56770;SDS011;42641;59.794;17.616;2024-03-25T13:27:37;3.87;;;1.90;;
56770;SDS011;42641;59.794;17.616;2024-03-25T13:30:04;2.07;;;1.70;;
56770;SDS011;42641;59.794;17.616;2024-03-25T13:32:31;2.10;;;1.90;;
56770;SDS011;42641;59.794;17.616;2024-03-25T13:34:58;1.80;;;1.70;;
56770;SDS011;42641;59.794;17.616;2024-03-25T13:37:24;2.27;;;1.90;;
56770;SDS011;42641;59.794;17.616;2024-03-25T13:39:50;1.83;;;1.63;;
56770;SDS011;42641;59.794;17.616;2024-03-25T13:42:18;1.93;;;1.73;;
56770;SDS011;42641;59.794;17.616;2024-03-25T13:44:45;2.60;;;1.73;;
56770;SDS011;42641;59.794;17.616;2024-03-25T13:47:11;3.60;;;1.90;;
56770;SDS011;42641;59.794;17.616;2024-03-25T13:49:37;3.03;;;1.83;;
56770;SDS011;42641;59.794;17.616;2024-03-25T13:52:04;1.80;;;1.50;;
56770;SDS011;42641;59.794;17.616;2024-03-25T13:54:31;1.97;;;1.83;;
56770;SDS011;42641;59.794;17.616;2024-03-25T13:56:57;3.03;;;1.90;;
56770;SDS011;42641;59.794;17.616;2024-03-25T13:59:23;3.83;;;1.80;;
56770;SDS011;42641;59.794;17.616;2024-03-25T14:01:50;2.20;;;1.73;;
56770;SDS011;42641;59.794;17.616;2024-03-25T14:04:17;2.00;;;1.63;;
56770;SDS011;42641;59.794;17.616;2024-03-25T14:06:44;1.83;;;1.53;;
56770;SDS011;42641;59.794;17.616;2024-03-25T14:09:27;2.50;;;1.90;;
56770;SDS011;42641;59.794;17.616;2024-03-25T14:11:53;2.60;;;1.70;;
56770;SDS011;42641;59.794;17.616;2024-03-25T14:14:20;2.17;;;1.77;;
56770;SDS011;42641;59.794;17.616;2024-03-25T14:16:46;2.40;;;1.90;;
56770;SDS011;42641;59.794;17.616;2024-03-25T14:19:13;3.17;;;1.67;;
56770;SDS011;42641;59.794;17.616;2024-03-25T14:21:39;2.10;;;1.90;;
56770;SDS011;42641;59.794;17.616;2024-03-25T14:24:06;2.20;;;1.67;;
56770;SDS011;42641;59.794;17.616;2024-03-25T14:26:33;3.43;;;1.80;;
56770;SDS011;42641;59.794;17.616;2024-03-25T14:28:59;2.37;;;1.60;;
56770;SDS011;42641;59.794;17.616;2024-03-25T14:31:27;2.80;;;1.80;;
56770;SDS011;42641;59.794;17.616;2024-03-25T14:33:58;3.20;;;2.00;;
56770;SDS011;42641;59.794;17.616;2024-03-25T14:36:24;2.33;;;2.10;;